Time;durP1;ratioP1;P1;durP2;ratioP2;P2;SDS_P1;SDS_P2;PMS_P1;PMS_P2;Temp;Humidity;BMP_temperature;BMP_pressure;BME280_temperature;BME280_humidity;BME280_pressure;Samples;Min_cycle;Max_cycle;Signal;HPM_P1;HPM_P2
2023/12/04 00:00:39;;;;;;;;;;;;;;;;;;4978542;28;19973;-79
2023/12/04 00:03:04;;;;;;;;;;;;;;;;;;4972038;28;20381;-77
2023/12/04 00:05:30;;;;;;;;;;;;;;;;;;4967839;28;20402;-80
2023/12/04 00:07:55;;;;;;;;;;;;;;;;;;4969421;28;20009;-78
2023/12/04 00:10:21;;;;;;;;;;;;;;;;;;4965401;28;19968;-77
2023/12/04 00:12:46;;;;;;;;;;;;;;;;;;4932337;29;19910;-78
2023/12/04 00:15:12;;;;;;;;;;;;;;;;;;4924248;28;19914;-76
2023/12/04 00:17:39;;;;;;;;;;;;;;;;;;4978078;28;19919;-77
2023/12/04 00:20:04;;;;;;;;;;;;;;;;;;4970862;28;19922;-77
2023/12/04 00:22:30;;;;;;;;;;;;;;;;;;4945060;28;19922;-78
2023/12/04 00:24:56;;;;;;;;;;;;;;;;;;4963070;28;19990;-78
2023/12/04 00:27:26;;;;;;;;;;;;;;;;;;4980353;28;19914;-79
2023/12/04 00:29:51;;;;;;;;;;;;;;;;;;4974525;28;19970;-76
2023/12/04 00:32:17;;;;;;;;;;;;;;;;;;4972537;28;19918;-78
2023/12/04 00:34:42;;;;;;;;;;;;;;;;;;4975168;28;19962;-77
2023/12/04 00:37:07;;;;;;;;;;;;;;;;;;4962311;28;19982;-78
2023/12/04 00:39:33;;;;;;;;;;;;;;;;;;4953565;29;19914;-77
2023/12/04 00:41:58;;;;;;;;;;;;;;;;;;4975446;28;19918;-78
2023/12/04 00:44:24;;;;;;;;;;;;;;;;;;4977613;28;20001;-77
2023/12/04 00:46:49;;;;;;;;;;;;;;;;;;4964722;28;19910;-77
2023/12/04 00:49:15;;;;;;;;;;;;;;;;;;4970511;28;19918;-78
2023/12/04 00:51:40;;;;;;;;;;;;;;;;;;4942123;29;19919;-76
2023/12/04 00:54:05;;;;;;;;;;;;;;;;;;4941063;28;20270;-78
2023/12/04 00:56:31;;;;;;;;;;;;;;;;;;4958691;28;20001;-78
2023/12/04 00:58:57;;;;;;;;;;;;;;;;;;4960298;28;20397;-77
2023/12/04 01:01:22;;;;;;;;;;;;;;;;;;4957661;29;20259;-78
2023/12/04 01:03:48;;;;;;;;;;;;;;;;;;4967865;28;19973;-76
2023/12/04 01:06:13;;;;;;;;;;;;;;;;;;4977699;28;19922;-77
2023/12/04 01:08:39;;;;;;;;;;;;;;;;;;4930421;28;19910;-76
2023/12/04 01:11:04;;;;;;;;;;;;;;;;;;4967783;28;20400;-77
2023/12/04 01:13:29;;;;;;;;;;;;;;;;;;4966717;28;19930;-78
2023/12/04 01:15:55;;;;;;;;;;;;;;;;;;4967377;28;20347;-77
2023/12/04 01:18:21;;;;;;;;;;;;;;;;;;4958738;28;19921;-77
2023/12/04 01:20:46;;;;;;;;;;;;;;;;;;4977168;28;19914;-78
2023/12/04 01:23:12;;;;;;;;;;;;;;;;;;4977363;28;19915;-78
2023/12/04 01:25:37;;;;;;;;;;;;;;;;;;4972903;28;19973;-77
2023/12/04 01:28:03;;;;;;;;;;;;;;;;;;4973139;28;19914;-77
2023/12/04 01:30:28;;;;;;;;;;;;;;;;;;4971416;28;19918;-77
2023/12/04 01:32:53;;;;;;;;;;;;;;;;;;4943236;29;19914;-77
2023/12/04 01:35:19;;;;;;;;;;;;;;;;;;4963011;28;20401;-77
2023/12/04 01:37:44;;;;;;;;;;;;;;;;;;4971712;28;19914;-78
2023/12/04 01:40:10;;;;;;;;;;;;;;;;;;4964369;28;19914;-77
2023/12/04 01:42:35;;;;;;;;;;;;;;;;;;4961338;28;19929;-78
2023/12/04 01:45:00;;;;;;;;;;;;;;;;;;4981139;28;19930;-77
2023/12/04 01:47:26;;;;;;;;;;;;;;;;;;4997471;28;19945;-77
2023/12/04 01:49:51;;;;;;;;;;;;;;;;;;4998327;28;19906;-78
2023/12/04 01:52:17;;;;;;;;;;;;;;;;;;4964048;28;19974;-76
2023/12/04 01:54:42;;;;;;;;;;;;;;;;;;4978230;28;19911;-78
2023/12/04 01:57:08;;;;;;;;;;;;;;;;;;4965293;28;19918;-78
2023/12/04 01:59:33;;;;;;;;;;;;;;;;;;4944544;29;20370;-77
2023/12/04 02:01:59;;;;;;;;;;;;;;;;;;4970972;28;19918;-78
2023/12/04 02:04:24;;;;;;;;;;;;;;;;;;4955496;28;19915;-77
2023/12/04 02:06:50;;;;;;;;;;;;;;;;;;4972526;28;20337;-78
2023/12/04 02:09:16;;;;;;;;;;;;;;;;;;4964888;28;20336;-77
2023/12/04 02:11:41;;;;;;;;;;;;;;;;;;4948362;29;19915;-77
2023/12/04 02:14:06;;;;;;;;;;;;;;;;;;4940881;28;20021;-77
2023/12/04 02:16:32;;;;;;;;;;;;;;;;;;4961281;28;20265;-78
2023/12/04 02:18:58;;;;;;;;;;;;;;;;;;4979375;28;19914;-77
2023/12/04 02:21:23;;;;;;;;;;;;;;;;;;4957899;29;19918;-77
2023/12/04 02:23:48;;;;;;;;;;;;;;;;;;4951518;29;19938;-78
2023/12/04 02:26:14;;;;;;;;;;;;;;;;;;4974198;28;19914;-77
2023/12/04 02:28:40;;;;;;;;;;;;;;;;;;4974617;28;19910;-77
2023/12/04 02:31:05;;;;;;;;;;;;;;;;;;4926227;29;20430;-76
2023/12/04 02:33:31;;;;;;;;;;;;;;;;;;4925837;29;19915;-78
2023/12/04 02:35:56;;;;;;;;;;;;;;;;;;4925325;29;19910;-77
2023/12/04 02:38:22;;;;;;;;;;;;;;;;;;4969679;28;19921;-77
2023/12/04 02:40:47;;;;;;;;;;;;;;;;;;4955564;29;19918;-77
2023/12/04 02:43:12;;;;;;;;;;;;;;;;;;4971851;28;19919;-78
2023/12/04 02:45:38;;;;;;;;;;;;;;;;;;4968411;28;19921;-77
2023/12/04 02:48:03;;;;;;;;;;;;;;;;;;4961700;28;20366;-76
2023/12/04 02:50:29;;;;;;;;;;;;;;;;;;4955719;28;20375;-77
2023/12/04 02:52:54;;;;;;;;;;;;;;;;;;4960742;28;19915;-77
2023/12/04 02:55:19;;;;;;;;;;;;;;;;;;4967873;28;19922;-75
2023/12/04 02:57:45;;;;;;;;;;;;;;;;;;4955182;28;20334;-77
2023/12/04 03:00:10;;;;;;;;;;;;;;;;;;4977140;28;19915;-75
2023/12/04 03:02:35;;;;;;;;;;;;;;;;;;4963031;29;19963;-77
2023/12/04 03:05:01;;;;;;;;;;;;;;;;;;4971388;28;19926;-76
2023/12/04 03:07:26;;;;;;;;;;;;;;;;;;4957712;29;20340;-77
2023/12/04 03:09:52;;;;;;;;;;;;;;;;;;4952550;28;19982;-76
2023/12/04 03:12:17;;;;;;;;;;;;;;;;;;4956684;28;20337;-78
2023/12/04 03:14:43;;;;;;;;;;;;;;;;;;4954182;29;20370;-77
2023/12/04 03:17:08;;;;;;;;;;;;;;;;;;4963685;28;19956;-77
2023/12/04 03:19:33;;;;;;;;;;;;;;;;;;4967707;28;20005;-77
2023/12/04 03:21:59;;;;;;;;;;;;;;;;;;4910787;29;19919;-77
2023/12/04 03:24:24;;;;;;;;;;;;;;;;;;4959940;28;20001;-76
2023/12/04 03:26:50;;;;;;;;;;;;;;;;;;4969079;28;19921;-78
2023/12/04 03:29:15;;;;;;;;;;;;;;;;;;4961431;28;19914;-77
2023/12/04 03:31:40;;;;;;;;;;;;;;;;;;4966883;28;19922;-76
2023/12/04 03:34:06;;;;;;;;;;;;;;;;;;4975195;28;20016;-77
2023/12/04 03:36:31;;;;;;;;;;;;;;;;;;4977249;28;19911;-77
2023/12/04 03:38:56;;;;;;;;;;;;;;;;;;4961572;28;19924;-78
2023/12/04 03:41:23;;;;;;;;;;;;;;;;;;4973964;28;20166;-75
2023/12/04 03:43:48;;;;;;;;;;;;;;;;;;4941890;29;19919;-77
2023/12/04 03:46:13;;;;;;;;;;;;;;;;;;4959218;28;19922;-77
2023/12/04 03:48:39;;;;;;;;;;;;;;;;;;4957788;29;19918;-76
2023/12/04 03:51:04;;;;;;;;;;;;;;;;;;4941339;29;19922;-75
2023/12/04 03:53:29;;;;;;;;;;;;;;;;;;4968753;28;19917;-76
2023/12/04 03:55:55;;;;;;;;;;;;;;;;;;4973946;28;19930;-77
2023/12/04 03:58:20;;;;;;;;;;;;;;;;;;4957833;28;19910;-78
2023/12/04 04:00:46;;;;;;;;;;;;;;;;;;4946734;28;19918;-77
2023/12/04 04:03:11;;;;;;;;;;;;;;;;;;4953566;29;19914;-77
2023/12/04 04:05:36;;;;;;;;;;;;;;;;;;4974465;28;19929;-78
2023/12/04 04:08:02;;;;;;;;;;;;;;;;;;4959554;29;20329;-75
2023/12/04 04:10:27;;;;;;;;;;;;;;;;;;4973323;28;20005;-78
2023/12/04 04:12:52;;;;;;;;;;;;;;;;;;4974933;28;19914;-78
2023/12/04 04:15:18;;;;;;;;;;;;;;;;;;4968195;28;19914;-75
2023/12/04 04:17:43;;;;;;;;;;;;;;;;;;4966187;28;20197;-77
2023/12/04 04:20:10;;;;;;;;;;;;;;;;;;4973339;28;19921;-77
2023/12/04 04:22:37;;;;;;;;;;;;;;;;;;4943772;28;19918;-77
2023/12/04 04:25:03;;;;;;;;;;;;;;;;;;4973411;28;19914;-78
2023/12/04 04:27:28;;;;;;;;;;;;;;;;;;4971455;28;20282;-77
2023/12/04 04:29:54;;;;;;;;;;;;;;;;;;4970436;28;20006;-78
2023/12/04 04:32:19;;;;;;;;;;;;;;;;;;4969597;28;19977;-77
2023/12/04 04:34:44;;;;;;;;;;;;;;;;;;4977595;28;19918;-77
2023/12/04 04:37:10;;;;;;;;;;;;;;;;;;4981883;28;19930;-78
2023/12/04 04:39:35;;;;;;;;;;;;;;;;;;4973177;28;19903;-77
2023/12/04 04:42:01;;;;;;;;;;;;;;;;;;4991789;28;19973;-77
2023/12/04 04:44:26;;;;;;;;;;;;;;;;;;4997211;28;19902;-77
2023/12/04 04:46:52;;;;;;;;;;;;;;;;;;4989956;28;19918;-78
2023/12/04 04:49:17;;;;;;;;;;;;;;;;;;4970216;28;20298;-77
2023/12/04 04:51:43;;;;;;;;;;;;;;;;;;4957356;29;19915;-77
2023/12/04 04:54:08;;;;;;;;;;;;;;;;;;4969929;28;20222;-75
2023/12/04 04:56:34;;;;;;;;;;;;;;;;;;4975195;28;19914;-77
2023/12/04 04:58:59;;;;;;;;;;;;;;;;;;4971386;28;19915;-77
2023/12/04 05:01:25;;;;;;;;;;;;;;;;;;4934124;28;19918;-77
2023/12/04 05:03:50;;;;;;;;;;;;;;;;;;4972530;28;19910;-78
2023/12/04 05:06:15;;;;;;;;;;;;;;;;;;4970750;28;19914;-78
2023/12/04 05:08:41;;;;;;;;;;;;;;;;;;4959936;28;19914;-75
2023/12/04 05:11:06;;;;;;;;;;;;;;;;;;4957039;28;20401;-77
2023/12/04 05:13:32;;;;;;;;;;;;;;;;;;4947990;29;19926;-76
2023/12/04 05:15:57;;;;;;;;;;;;;;;;;;4958222;29;19914;-77
2023/12/04 05:18:22;;;;;;;;;;;;;;;;;;4960332;28;19914;-77
2023/12/04 05:20:48;;;;;;;;;;;;;;;;;;4977473;28;19915;-76
2023/12/04 05:23:13;;;;;;;;;;;;;;;;;;4980451;28;19977;-76
2023/12/04 05:25:39;;;;;;;;;;;;;;;;;;4966407;28;19981;-77
2023/12/04 05:28:04;;;;;;;;;;;;;;;;;;4970626;29;19915;-77
2023/12/04 05:30:30;;;;;;;;;;;;;;;;;;4988208;28;19921;-78
2023/12/04 05:32:55;;;;;;;;;;;;;;;;;;4969586;29;20005;-77
2023/12/04 05:35:20;;;;;;;;;;;;;;;;;;4967768;29;19914;-76
2023/12/04 05:37:46;;;;;;;;;;;;;;;;;;4950164;29;19922;-77
2023/12/04 05:40:11;;;;;;;;;;;;;;;;;;4968249;28;20015;-78
2023/12/04 05:42:37;;;;;;;;;;;;;;;;;;4975186;28;19926;-77
2023/12/04 05:45:02;;;;;;;;;;;;;;;;;;4951648;29;19914;-77
2023/12/04 05:47:27;;;;;;;;;;;;;;;;;;4945634;29;20021;-77
2023/12/04 05:49:53;;;;;;;;;;;;;;;;;;4964578;28;19921;-77
2023/12/04 05:52:18;;;;;;;;;;;;;;;;;;4971659;28;20060;-77
2023/12/04 05:54:44;;;;;;;;;;;;;;;;;;4960143;28;19918;-77
2023/12/04 05:57:09;;;;;;;;;;;;;;;;;;4968278;28;19914;-77
2023/12/04 05:59:34;;;;;;;;;;;;;;;;;;4934219;28;19918;-76
2023/12/04 06:02:00;;;;;;;;;;;;;;;;;;4960873;28;20009;-76
2023/12/04 06:04:26;;;;;;;;;;;;;;;;;;4971343;28;20382;-77
2023/12/04 06:06:51;;;;;;;;;;;;;;;;;;4943834;28;19911;-77
2023/12/04 06:09:17;;;;;;;;;;;;;;;;;;4971030;28;19938;-78
2023/12/04 06:11:42;;;;;;;;;;;;;;;;;;4951614;28;19957;-78
2023/12/04 06:14:08;;;;;;;;;;;;;;;;;;4956830;29;19919;-78
2023/12/04 06:16:33;;;;;;;;;;;;;;;;;;4958622;28;19915;-77
2023/12/04 06:18:58;;;;;;;;;;;;;;;;;;4972201;28;19941;-77
2023/12/04 06:21:24;;;;;;;;;;;;;;;;;;4971294;28;19918;-78
2023/12/04 06:23:50;;;;;;;;;;;;;;;;;;4969821;28;19914;-78
2023/12/04 06:26:16;;;;;;;;;;;;;;;;;;4942062;28;19957;-78
2023/12/04 06:28:42;;;;;;;;;;;;;;;;;;4975922;28;19914;-78
2023/12/04 06:31:07;;;;;;;;;;;;;;;;;;4956212;28;19925;-78
2023/12/04 06:33:33;;;;;;;;;;;;;;;;;;4962602;28;19918;-77
2023/12/04 06:35:58;;;;;;;;;;;;;;;;;;4971916;28;19915;-77
2023/12/04 06:38:24;;;;;;;;;;;;;;;;;;4972057;28;20396;-77
2023/12/04 06:40:49;;;;;;;;;;;;;;;;;;4959509;28;20338;-78
2023/12/04 06:43:18;;;;;;;;;;;;;;;;;;4971736;28;19914;-77
2023/12/04 06:45:43;;;;;;;;;;;;;;;;;;4955469;28;19919;-77
2023/12/04 06:48:09;;;;;;;;;;;;;;;;;;4967991;28;19915;-77
2023/12/04 06:50:34;;;;;;;;;;;;;;;;;;4955018;28;19914;-77
2023/12/04 06:53:00;;;;;;;;;;;;;;;;;;4968740;28;19961;-79
2023/12/04 06:55:25;;;;;;;;;;;;;;;;;;4970587;28;19921;-78
2023/12/04 06:57:51;;;;;;;;;;;;;;;;;;4940562;28;19921;-77
2023/12/04 07:00:16;;;;;;;;;;;;;;;;;;4977842;28;19921;-77
2023/12/04 07:02:42;;;;;;;;;;;;;;;;;;4977853;28;19953;-77
2023/12/04 07:05:07;;;;;;;;;;;;;;;;;;4943167;29;19918;-77
2023/12/04 07:07:33;;;;;;;;;;;;;;;;;;4953568;28;20370;-78
2023/12/04 07:09:58;;;;;;;;;;;;;;;;;;4968050;28;19914;-77
2023/12/04 07:12:23;;;;;;;;;;;;;;;;;;4948259;28;20278;-76
2023/12/04 07:14:49;;;;;;;;;;;;;;;;;;4972585;28;20008;-77
2023/12/04 07:17:14;;;;;;;;;;;;;;;;;;4983090;28;20300;-77
2023/12/04 07:19:40;;;;;;;;;;;;;;;;;;4990374;28;19914;-78
2023/12/04 07:22:05;;;;;;;;;;;;;;;;;;4984085;28;19914;-77
2023/12/04 07:24:31;;;;;;;;;;;;;;;;;;4976697;28;19936;-78
2023/12/04 07:26:56;;;;;;;;;;;;;;;;;;4995293;28;19942;-77
2023/12/04 07:29:22;;;;;;;;;;;;;;;;;;5001069;28;19906;-78
2023/12/04 07:31:47;;;;;;;;;;;;;;;;;;4983340;28;19918;-77
2023/12/04 07:34:13;;;;;;;;;;;;;;;;;;4969222;28;20008;-76
2023/12/04 07:36:38;;;;;;;;;;;;;;;;;;4959924;28;19938;-78
2023/12/04 07:39:06;;;;;;;;;;;;;;;;;;4972189;28;19910;-78
2023/12/04 07:41:31;;;;;;;;;;;;;;;;;;4960752;28;19925;-77
2023/12/04 07:43:57;;;;;;;;;;;;;;;;;;4972491;28;19922;-77
2023/12/04 07:46:22;;;;;;;;;;;;;;;;;;4962840;28;19919;-78
2023/12/04 07:48:47;;;;;;;;;;;;;;;;;;4959215;28;19926;-78
2023/12/04 07:51:13;;;;;;;;;;;;;;;;;;4968161;28;19921;-78
2023/12/04 07:53:38;;;;;;;;;;;;;;;;;;4961409;28;19918;-77
2023/12/04 07:56:04;;;;;;;;;;;;;;;;;;4962872;28;19914;-78
2023/12/04 07:58:29;;;;;;;;;;;;;;;;;;4958605;28;19918;-79
2023/12/04 08:00:56;;;;;;;;;;;;;;;;;;4947731;28;19914;-77
2023/12/04 08:03:21;;;;;;;;;;;;;;;;;;4959549;28;19910;-78
2023/12/04 08:05:47;;;;;;;;;;;;;;;;;;4963525;28;19925;-77
2023/12/04 08:08:12;;;;;;;;;;;;;;;;;;4954058;28;20599;-78
2023/12/04 08:10:38;;;;;;;;;;;;;;;;;;4960506;28;19958;-77
2023/12/04 08:13:03;;;;;;;;;;;;;;;;;;4946976;28;20349;-78
2023/12/04 08:15:28;;;;;;;;;;;;;;;;;;4960104;28;19915;-77
2023/12/04 08:17:55;;;;;;;;;;;;;;;;;;4973195;28;19983;-76
2023/12/04 08:20:22;;;;;;;;;;;;;;;;;;4957178;29;20006;-77
2023/12/04 08:22:47;;;;;;;;;;;;;;;;;;4945641;28;20142;-77
2023/12/04 08:25:13;;;;;;;;;;;;;;;;;;4978276;28;19918;-77
2023/12/04 08:27:38;;;;;;;;;;;;;;;;;;4961087;28;19910;-78
2023/12/04 08:30:04;;;;;;;;;;;;;;;;;;4977951;28;19922;-78
2023/12/04 08:32:29;;;;;;;;;;;;;;;;;;4958660;28;19918;-77
2023/12/04 08:34:55;;;;;;;;;;;;;;;;;;4941523;29;19918;-78
2023/12/04 08:37:20;;;;;;;;;;;;;;;;;;4914847;29;19938;-78
2023/12/04 08:39:46;;;;;;;;;;;;;;;;;;4976235;28;19936;-78
2023/12/04 08:42:12;;;;;;;;;;;;;;;;;;4972868;28;20293;-77
2023/12/04 08:44:37;;;;;;;;;;;;;;;;;;4961049;28;19914;-78
2023/12/04 08:47:03;;;;;;;;;;;;;;;;;;4971888;28;20013;-76
2023/12/04 08:49:28;;;;;;;;;;;;;;;;;;4974341;28;20285;-76
2023/12/04 08:51:53;;;;;;;;;;;;;;;;;;4975745;28;20020;-77
2023/12/04 08:54:19;;;;;;;;;;;;;;;;;;4972977;28;19982;-77
2023/12/04 08:56:44;;;;;;;;;;;;;;;;;;4971555;28;19911;-77
2023/12/04 08:59:09;;;;;;;;;;;;;;;;;;4965317;28;19918;-78
2023/12/04 09:01:35;;;;;;;;;;;;;;;;;;4965381;28;19922;-78
2023/12/04 09:04:00;;;;;;;;;;;;;;;;;;4971984;28;20293;-77
2023/12/04 09:06:26;;;;;;;;;;;;;;;;;;4959339;28;19910;-79
2023/12/04 09:08:51;;;;;;;;;;;;;;;;;;4958961;28;19985;-78
2023/12/04 09:11:17;;;;;;;;;;;;;;;;;;4948357;28;19914;-78
2023/12/04 09:13:42;;;;;;;;;;;;;;;;;;4963932;28;19914;-77
2023/12/04 09:16:08;;;;;;;;;;;;;;;;;;4972230;28;19996;-78
2023/12/04 09:18:34;;;;;;;;;;;;;;;;;;4941695;28;19968;-78
2023/12/04 09:20:59;;;;;;;;;;;;;;;;;;4945597;28;19952;-76
2023/12/04 09:23:25;;;;;;;;;;;;;;;;;;4972099;28;19921;-77
2023/12/04 09:25:50;;;;;;;;;;;;;;;;;;4965230;28;20393;-77
2023/12/04 09:28:16;;;;;;;;;;;;;;;;;;4972113;28;19921;-78
2023/12/04 09:30:41;;;;;;;;;;;;;;;;;;4961197;28;19921;-77
2023/12/04 09:33:07;;;;;;;;;;;;;;;;;;4976276;28;20512;-78
2023/12/04 09:35:32;;;;;;;;;;;;;;;;;;4976045;28;19914;-78
2023/12/04 09:37:58;;;;;;;;;;;;;;;;;;4975118;28;19922;-78
2023/12/04 09:40:24;;;;;;;;;;;;;;;;;;4957608;28;19968;-78
2023/12/04 09:42:50;;;;;;;;;;;;;;;;;;4972369;28;19986;-77
2023/12/04 09:45:16;;;;;;;;;;;;;;;;;;4958880;29;20389;-77
2023/12/04 09:47:41;;;;;;;;;;;;;;;;;;4958350;28;19965;-77
2023/12/04 09:50:06;;;;;;;;;;;;;;;;;;4968865;29;19921;-77
2023/12/04 09:52:32;;;;;;;;;;;;;;;;;;4958887;28;19914;-78
2023/12/04 09:54:57;;;;;;;;;;;;;;;;;;4972811;28;20366;-79
2023/12/04 09:57:23;;;;;;;;;;;;;;;;;;4961358;28;19915;-78
2023/12/04 09:59:48;;;;;;;;;;;;;;;;;;4949858;29;19914;-77
2023/12/04 10:02:14;;;;;;;;;;;;;;;;;;4974497;28;20010;-78
2023/12/04 10:04:40;;;;;;;;;;;;;;;;;;4974094;28;19917;-78
2023/12/04 10:07:06;;;;;;;;;;;;;;;;;;4981658;28;19906;-78
2023/12/04 10:09:32;;;;;;;;;;;;;;;;;;4988533;28;19919;-78
2023/12/04 10:11:57;;;;;;;;;;;;;;;;;;4979511;28;19918;-78
2023/12/04 10:14:23;;;;;;;;;;;;;;;;;;4980281;28;19902;-78
2023/12/04 10:16:49;;;;;;;;;;;;;;;;;;4980391;28;19903;-78
2023/12/04 10:19:14;;;;;;;;;;;;;;;;;;4980155;28;19919;-78
2023/12/04 10:21:39;;;;;;;;;;;;;;;;;;4987905;28;19925;-78
2023/12/04 10:24:05;;;;;;;;;;;;;;;;;;4985528;28;19914;-77
2023/12/04 10:26:30;;;;;;;;;;;;;;;;;;4978210;28;20357;-78
2023/12/04 10:28:55;;;;;;;;;;;;;;;;;;4976381;28;19925;-79
2023/12/04 10:31:21;;;;;;;;;;;;;;;;;;4971148;28;19942;-78
2023/12/04 10:33:49;;;;;;;;;;;;;;;;;;4969203;28;19949;-79
2023/12/04 10:36:14;;;;;;;;;;;;;;;;;;4941362;29;20409;-78
2023/12/04 10:38:40;;;;;;;;;;;;;;;;;;4949353;29;19914;-78
2023/12/04 10:41:05;;;;;;;;;;;;;;;;;;4970004;28;19921;-77
2023/12/04 10:43:31;;;;;;;;;;;;;;;;;;4960735;28;20002;-78
2023/12/04 10:45:56;;;;;;;;;;;;;;;;;;4969472;28;19914;-78
2023/12/04 10:48:22;;;;;;;;;;;;;;;;;;4972392;28;19922;-78
2023/12/04 10:50:47;;;;;;;;;;;;;;;;;;4926556;28;19918;-78
2023/12/04 10:53:12;;;;;;;;;;;;;;;;;;4974030;28;19925;-78
2023/12/04 10:55:39;;;;;;;;;;;;;;;;;;4974715;28;19922;-77
2023/12/04 10:58:05;;;;;;;;;;;;;;;;;;4955627;28;19925;-79
2023/12/04 11:00:30;;;;;;;;;;;;;;;;;;4974295;28;19918;-77
2023/12/04 11:02:55;;;;;;;;;;;;;;;;;;4950992;29;19946;-78
2023/12/04 11:05:21;;;;;;;;;;;;;;;;;;4932913;28;19914;-78
2023/12/04 11:07:46;;;;;;;;;;;;;;;;;;4948717;28;19910;-79
2023/12/04 11:10:12;;;;;;;;;;;;;;;;;;4944660;28;19953;-78
2023/12/04 11:12:37;;;;;;;;;;;;;;;;;;4954808;28;19923;-79
2023/12/04 11:15:03;;;;;;;;;;;;;;;;;;4945122;28;19917;-78
2023/12/04 11:17:29;;;;;;;;;;;;;;;;;;4958457;28;19915;-79
2023/12/04 11:19:54;;;;;;;;;;;;;;;;;;4969897;28;19921;-78
2023/12/04 11:22:20;;;;;;;;;;;;;;;;;;4967033;28;19941;-78
2023/12/04 11:24:45;;;;;;;;;;;;;;;;;;4943822;28;19919;-81
2023/12/04 11:27:10;;;;;;;;;;;;;;;;;;4961316;28;19914;-79
2023/12/04 11:29:36;;;;;;;;;;;;;;;;;;4959345;28;19914;-79
2023/12/04 11:32:02;;;;;;;;;;;;;;;;;;4959125;28;19914;-79
2023/12/04 11:34:27;;;;;;;;;;;;;;;;;;4954887;29;19922;-79
2023/12/04 11:36:52;;;;;;;;;;;;;;;;;;4943531;28;20448;-77
2023/12/04 11:39:18;;;;;;;;;;;;;;;;;;4956556;29;19925;-78
2023/12/04 11:41:43;;;;;;;;;;;;;;;;;;4965618;28;20009;-79
2023/12/04 11:44:09;;;;;;;;;;;;;;;;;;4957273;28;20009;-78
2023/12/04 11:46:34;;;;;;;;;;;;;;;;;;4945145;28;20005;-78
2023/12/04 11:49:00;;;;;;;;;;;;;;;;;;4974613;28;19914;-81
2023/12/04 11:51:25;;;;;;;;;;;;;;;;;;4976707;28;19958;-78
2023/12/04 11:53:51;;;;;;;;;;;;;;;;;;4973417;28;19919;-78
2023/12/04 11:56:17;;;;;;;;;;;;;;;;;;4970694;28;19910;-79
2023/12/04 11:58:43;;;;;;;;;;;;;;;;;;4973707;28;19921;-78
2023/12/04 12:01:09;;;;;;;;;;;;;;;;;;4961392;28;19930;-79
2023/12/04 12:03:34;;;;;;;;;;;;;;;;;;4969504;28;19921;-79
2023/12/04 12:06:00;;;;;;;;;;;;;;;;;;4963774;28;19914;-79
2023/12/04 12:08:26;;;;;;;;;;;;;;;;;;4942568;28;19915;-77
2023/12/04 12:10:52;;;;;;;;;;;;;;;;;;4962150;28;20440;-79
2023/12/04 12:13:17;;;;;;;;;;;;;;;;;;4952225;29;20527;-79
2023/12/04 12:15:43;;;;;;;;;;;;;;;;;;4945437;29;19914;-79
2023/12/04 12:18:09;;;;;;;;;;;;;;;;;;4943866;28;19914;-79
2023/12/04 12:20:35;;;;;;;;;;;;;;;;;;4979623;28;20259;-78
2023/12/04 12:23:00;;;;;;;;;;;;;;;;;;4975848;28;19918;-78
2023/12/04 12:25:26;;;;;;;;;;;;;;;;;;4958760;29;19977;-79
2023/12/04 12:27:51;;;;;;;;;;;;;;;;;;4972551;28;19914;-79
2023/12/04 12:30:19;;;;;;;;;;;;;;;;;;4945704;28;20594;-79
2023/12/04 12:32:45;;;;;;;;;;;;;;;;;;4976550;28;19941;-78
2023/12/04 12:35:11;;;;;;;;;;;;;;;;;;4974992;28;19914;-79
2023/12/04 12:37:38;;;;;;;;;;;;;;;;;;4971126;28;19918;-79
2023/12/04 12:40:04;;;;;;;;;;;;;;;;;;4960121;28;20006;-78
2023/12/04 12:42:30;;;;;;;;;;;;;;;;;;4979572;28;19986;-79
2023/12/04 12:44:55;;;;;;;;;;;;;;;;;;4981557;28;19914;-79
2023/12/04 12:47:21;;;;;;;;;;;;;;;;;;4979026;28;19903;-78
2023/12/04 12:49:47;;;;;;;;;;;;;;;;;;4996334;28;20061;-79
2023/12/04 12:52:12;;;;;;;;;;;;;;;;;;4964805;28;19979;-79
2023/12/04 12:54:38;;;;;;;;;;;;;;;;;;4997389;28;19946;-79
2023/12/04 12:57:03;;;;;;;;;;;;;;;;;;4965197;28;19903;-78
2023/12/04 12:59:29;;;;;;;;;;;;;;;;;;4979613;29;19914;-79
2023/12/04 13:01:56;;;;;;;;;;;;;;;;;;4973893;28;19941;-78
2023/12/04 13:04:21;;;;;;;;;;;;;;;;;;4959621;28;19946;-79
2023/12/04 13:06:47;;;;;;;;;;;;;;;;;;4940309;29;19918;-79
2023/12/04 13:09:18;;;;;;;;;;;;;;;;;;4946303;28;19914;-78
2023/12/04 13:11:43;;;;;;;;;;;;;;;;;;4963142;28;19962;-79
2023/12/04 13:14:09;;;;;;;;;;;;;;;;;;4952303;29;19918;-79
2023/12/04 13:16:34;;;;;;;;;;;;;;;;;;4971200;28;19922;-79
2023/12/04 13:19:00;;;;;;;;;;;;;;;;;;4972313;28;19915;-76
2023/12/04 13:21:26;;;;;;;;;;;;;;;;;;4992262;23;19931;-80
2023/12/04 13:23:51;;;;;;;;;;;;;;;;;;4968236;28;20431;-82
2023/12/04 13:26:18;;;;;;;;;;;;;;;;;;4998642;28;19921;-83
2023/12/04 13:28:43;;;;;;;;;;;;;;;;;;4968526;28;19913;-82
2023/12/04 13:31:09;;;;;;;;;;;;;;;;;;4983894;28;20047;-82
2023/12/04 13:33:35;;;;;;;;;;;;;;;;;;4967676;28;19913;-82
2023/12/04 13:36:00;;;;;;;;;;;;;;;;;;4984036;28;19920;-82
2023/12/04 13:38:26;;;;;;;;;;;;;;;;;;4968727;28;19913;-82
2023/12/04 13:41:18;;;;;;;;;;;;;;;;;;4982767;28;19936;-82
2023/12/04 13:43:50;;;;;;;;;;;;;;;;;;4992496;28;19918;-82
2023/12/04 13:46:15;;;;;;;;;;;;;;;;;;4949717;28;20436;-81
2023/12/04 13:48:41;;;;;;;;;;;;;;;;;;4948329;28;19941;-82
2023/12/04 13:51:06;;;;;;;;;;;;;;;;;;4964094;28;20016;-82
2023/12/04 13:53:32;;;;;;;;;;;;;;;;;;4949378;28;19913;-82
2023/12/04 14:01:11;;;;;;;;;;;;;;;;;;4999990;28;20404;-82
2023/12/04 14:03:37;;;;;;;;;;;;;;;;;;5002014;28;19940;-84
2023/12/04 14:06:05;;;;;;;;;;;;;;;;;;4986777;28;19913;-84
2023/12/04 14:08:30;;;;;;;;;;;;;;;;;;4987120;28;20364;-82
2023/12/04 14:10:57;;;;;;;;;;;;;;;;;;4969734;28;20005;-82
2023/12/04 14:13:23;;;;;;;;;;;;;;;;;;4988256;28;19914;-82
2023/12/04 14:15:48;;;;;;;;;;;;;;;;;;4986877;28;19941;-82
2023/12/04 14:18:16;;;;;;;;;;;;;;;;;;5004518;28;20300;-81
2023/12/04 14:20:43;;;;;;;;;;;;;;;;;;4995793;28;19984;-82
2023/12/04 14:23:31;;;;;;;;;;;;;;;;;;4978456;28;20438;-81
2023/12/04 14:26:00;;;;;;;;;;;;;;;;;;4982259;28;19913;-81
2023/12/04 14:28:27;;;;;;;;;;;;;;;;;;4985648;28;19914;-82
2023/12/04 14:30:54;;;;;;;;;;;;;;;;;;4999475;28;19921;-81
2023/12/04 14:33:21;;;;;;;;;;;;;;;;;;4998646;28;19936;-81
2023/12/04 14:35:47;;;;;;;;;;;;;;;;;;4976405;28;19940;-81
2023/12/04 14:38:19;;;;;;;;;;;;;;;;;;4985851;28;19914;-82
2023/12/04 14:40:45;;;;;;;;;;;;;;;;;;4965516;28;19968;-81
2023/12/04 14:43:12;;;;;;;;;;;;;;;;;;4956316;28;19953;-80
2023/12/04 14:45:37;;;;;;;;;;;;;;;;;;4986304;28;20449;-81
2023/12/04 14:48:06;;;;;;;;;;;;;;;;;;4977203;28;19916;-81
2023/12/04 14:50:32;;;;;;;;;;;;;;;;;;5006070;28;19921;-81
2023/12/04 14:53:08;;;;;;;;;;;;;;;;;;4991371;28;19917;-81
2023/12/04 14:56:36;;;;;;;;;;;;;;;;;;4992805;28;19913;-81
2023/12/04 15:07:24;;;;;;;;;;;;;;;;;;5015157;28;20008;-81
2023/12/04 15:14:49;;;;;;;;;;;;;;;;;;5021300;28;19917;-81
2023/12/04 15:17:28;;;;;;;;;;;;;;;;;;;;;
2023/12/04 15:20:14;;;;;;;;;;;;;;;;;;4994761;28;20008;-80
2023/12/04 15:22:37;;;;;;;;;;;;;;;;;;4984446;28;19917;-81
2023/12/04 15:25:03;;;;;;;;;;;;;;;;;;4993913;28;19953;-80
2023/12/04 15:27:28;;;;;;;;;;;;;;;;;;4987014;28;19913;-80
2023/12/04 15:29:54;;;;;;;;;;;;;;;;;;4987696;28;19910;-81
2023/12/04 15:32:19;;;;;;;;;;;;;;;;;;4989239;28;19924;-80
2023/12/04 15:34:45;;;;;;;;;;;;;;;;;;4993482;28;19917;-81
2023/12/04 15:37:11;;;;;;;;;;;;;;;;;;4996895;28;19914;-81
2023/12/04 15:39:37;;;;;;;;;;;;;;;;;;4979963;28;19913;-80
2023/12/04 15:42:05;;;;;;;;;;;;;;;;;;4996881;28;19955;-80
2023/12/04 15:44:31;;;;;;;;;;;;;;;;;;4987223;28;20549;-81
2023/12/04 15:46:56;;;;;;;;;;;;;;;;;;4995148;28;20440;-80
2023/12/04 15:49:22;;;;;;;;;;;;;;;;;;4988747;28;19985;-81
2023/12/04 15:51:48;;;;;;;;;;;;;;;;;;4988392;28;19960;-81
2023/12/04 15:54:13;;;;;;;;;;;;;;;;;;4995973;28;19910;-81
2023/12/04 15:56:39;;;;;;;;;;;;;;;;;;4985753;28;19917;-81
2023/12/04 15:59:05;;;;;;;;;;;;;;;;;;4983140;28;19936;-81
2023/12/04 16:01:31;;;;;;;;;;;;;;;;;;4986517;28;19944;-81
2023/12/04 16:03:57;;;;;;;;;;;;;;;;;;4978293;28;19914;-81
2023/12/04 16:06:24;;;;;;;;;;;;;;;;;;4974688;28;19940;-81
2023/12/04 16:08:56;;;;;;;;;;;;;;;;;;4986595;28;19941;-80
2023/12/04 16:11:22;;;;;;;;;;;;;;;;;;4986885;28;19949;-81
2023/12/04 16:13:47;;;;;;;;;;;;;;;;;;4985242;28;19917;-80
2023/12/04 16:16:13;;;;;;;;;;;;;;;;;;4984929;28;19914;-80
2023/12/04 16:18:39;;;;;;;;;;;;;;;;;;4984427;28;19955;-80
2023/12/04 16:21:04;;;;;;;;;;;;;;;;;;5001672;28;19959;-80
2023/12/04 16:23:29;;;;;;;;;;;;;;;;;;4999493;28;19928;-81
2023/12/04 16:25:55;;;;;;;;;;;;;;;;;;4997833;28;19914;-80
2023/12/04 16:28:20;;;;;;;;;;;;;;;;;;4968224;28;19920;-80
2023/12/04 16:30:46;;;;;;;;;;;;;;;;;;4986515;28;19968;-81
2023/12/04 16:33:11;;;;;;;;;;;;;;;;;;4985218;28;19913;-80
2023/12/04 16:35:39;;;;;;;;;;;;;;;;;;4985016;28;19929;-81
2023/12/04 16:38:05;;;;;;;;;;;;;;;;;;4984697;28;19914;-80
2023/12/04 16:40:31;;;;;;;;;;;;;;;;;;4987028;28;19914;-82
2023/12/04 16:42:56;;;;;;;;;;;;;;;;;;4964654;28;19918;-82
2023/12/04 16:45:22;;;;;;;;;;;;;;;;;;4968262;28;19913;-82
2023/12/04 16:47:47;;;;;;;;;;;;;;;;;;4982922;28;19921;-82
2023/12/04 16:50:13;;;;;;;;;;;;;;;;;;4971515;28;19913;-81
2023/12/04 16:52:39;;;;;;;;;;;;;;;;;;4991293;28;19920;-80
2023/12/04 16:55:05;;;;;;;;;;;;;;;;;;5002853;28;19913;-81